• Join FlightAware (Why Join?)
  • Login
  • US Flag 
09:30PM EDT


 

Airport Tracker/Info


-or-


 

Live Flight TrackerFlight Track Log ✈ C-GECT ✈ 27-Jul-2013 ✈ CYTZ - CYHZ

Flight Track Log - Related Links

Times and Time Zones

All times are in EDT time to prevent confusion due to time zone crossing. See the C-GECT flight status page for this flight to view local times or setup timezone preferences in your user account.

Time Position Orientation Groundspeed Altitude Reporting Facility
EDT Latitude Longitude Course Direction KTS MPH feet Rate Location/Type
11:13AM 43.6333 -79.3333 65° Northeast 120 138 1,500  Level Toronto Center
11:14AM 43.6500 -79.2833 65° Northeast 150 173 2,700 1,200 Climbing Toronto Center
11:15AM 43.6833 -79.2333 47° Northeast 160 184 3,900 1,200 Climbing Toronto Center
11:16AM 43.7000 -79.1667 71° East 160 184 5,200 1,260 Climbing Toronto Center
11:17AM 43.8288 -78.8636 65° Northeast  Level FlightAware Approximate
11:17AM 43.7167 -79.1333 55° Northeast 160 184 6,500  Level Toronto Center
11:18AM 43.8578 -78.7678 67° East  Level FlightAware Approximate
11:18AM 43.7500 -79.0500 61° Northeast 170 196 7,600  Level Toronto Center
11:19AM 43.8875 -78.6708 65° Northeast  Level FlightAware Approximate
11:19AM 43.7667 -79.0167 55° Northeast 180 207 8,900  Level Toronto Center
11:20AM 43.8000 -78.9333 61° Northeast 190 219 10,100 1,200 Climbing Toronto Center
11:21AM 43.8167 -78.8667 71° East 190 219 11,400 1,200 Climbing Toronto Center
11:22AM 43.8333 -78.8000 71° East 190 219 12,500 1,200 Climbing Toronto Center
11:23AM 43.8667 -78.7333 55° Northeast 200 230 13,800 1,200 Climbing Toronto Center
11:24AM 43.9000 -78.6667 55° Northeast 190 219 15,000 600 Climbing Toronto Center
11:25AM 43.9167 -78.5833 74° East 210 242 15,000 300 Level Toronto Center
11:26AM 43.9500 -78.5167 55° Northeast 250 288 15,700 780 Climbing Toronto Center
11:27AM 43.9667 -78.4333 74° East 240 276 16,600 960 Climbing Toronto Center
11:28AM 44.0000 -78.3500 61° Northeast 230 265 17,700 1,140 Climbing Toronto Center
11:29AM 44.0333 -78.2833 55° Northeast 210 242 18,900 960 Climbing Toronto Center
11:30AM 44.0500 -78.2167 71° East 200 230 19,700 660 Climbing Toronto Center
11:31AM 44.0833 -78.1500 55° Northeast 210 242 20,300 660 Climbing Toronto Center
11:32AM 44.1167 -78.0500 65° Northeast 220 253 21,100 720 Climbing Toronto Center
11:33AM 44.1500 -77.9833 55° Northeast 220 253 21,800 600 Climbing Toronto Center
11:34AM 44.1667 -77.9167 71° East 220 253 22,400 600 Climbing Toronto Center
11:35AM 44.2000 -77.8167 65° Northeast 230 265 23,000 540 Climbing Toronto Center
11:36AM 44.2167 -77.7500 71° East 230 265 23,500 540 Climbing Toronto Center
11:37AM 44.2500 -77.6500 65° Northeast 230 265 24,100 540 Climbing Toronto Center
11:38AM 44.2667 -77.5667 74° East 240 276 24,600 480 Climbing Toronto Center
11:39AM 44.3000 -77.4667 65° Northeast 240 276 25,100 420 Climbing Toronto Center
11:40AM 44.3167 -77.4000 71° East 240 276 25,500 300 Climbing Toronto Center
11:41AM 44.3333 -77.3000 77° East 240 276 25,800 360 Climbing Toronto Center
11:42AM 44.3500 -77.2000 77° East 250 288 26,300 360 Climbing Toronto Center
11:43AM 44.3833 -77.1167 61° Northeast 250 288 26,600 300 Climbing Toronto Center
11:44AM 44.3833 -77.0167 90° East 240 276 27,000 180 Climbing Toronto Center
11:45AM 44.4000 -76.9333 74° East 250 288 27,000  Level Toronto Center
11:46AM 44.4167 -76.8333 77° East 260 299 27,000  Level Toronto Center
11:47AM 44.4167 -76.7167 90° East 270 311 27,000  Level Toronto Center
11:48AM 44.4167 -76.6167 90° East 280 322 27,000  Level Toronto Center
11:49AM 44.4333 -76.5000 79° East 280 322 27,000  Level Toronto Center
11:51AM 44.4500 -76.3667 80° East 280 322 27,000  Level Montreal Center
11:52AM 44.4500 -76.2667 90° East 280 322 27,000  Level Montreal Center
11:53AM 44.4667 -76.1500 79° East 290 334 27,000  Level Montreal Center
11:54AM 44.5000 -76.0667 61° Northeast 290 334 27,000  Level Montreal Center
11:55AM 44.5333 -75.9500 68° East 290 334 27,000  Level Montreal Center
11:56AM 44.5667 -75.8500 65° Northeast 290 334 27,000  Level Montreal Center
11:57AM 44.6000 -75.7333 68° East 290 334 27,000  Level Montreal Center
11:58AM 44.6333 -75.6333 65° Northeast 290 334 27,000  Level Montreal Center
11:59AM 44.6667 -75.5167 68° East 290 334 27,000  Level Montreal Center
12:00PM 44.7000 -75.4333 61° Northeast 290 334 27,000  Level Montreal Center
12:01PM 44.7333 -75.3167 68° East 290 334 27,000  Level Montreal Center
12:02PM 44.7500 -75.1833 80° East 300 345 27,000  Level Montreal Center
12:03PM 44.7833 -75.1000 61° Northeast 290 334 27,000  Level Montreal Center
12:04PM 44.8167 -75.0000 65° Northeast 290 334 27,000  Level Montreal Center
12:05PM 44.8500 -74.8833 68° East 290 334 27,000  Level Montreal Center
12:06PM 44.8667 -74.7667 79° East 290 334 27,000  Level Montreal Center
12:07PM 44.9000 -74.6667 65° Northeast 290 334 27,000  Level Montreal Center
12:08PM 44.9333 -74.5500 68° East 290 334 27,000  Level Montreal Center
12:09PM 44.9667 -74.4500 65° Northeast 290 334 27,000  Level Montreal Center
12:10PM 44.9833 -74.3333 79° East 290 334 27,000  Level Montreal Center
12:11PM 45.0000 -74.2167 79° East 280 322 27,000  Level Montreal Center
12:12PM 44.9833 -74.1167 103° East 280 322 27,000  Level Montreal Center
12:13PM 45.0000 -74.0000 79° East 280 322 27,000  Level Montreal Center
12:14PM 45.0000 -73.9000 90° East 280 322 27,000  Level Montreal Center
12:15PM 45.0000 -73.7833 90° East 280 322 27,000  Level Montreal Center
12:16PM 45.0167 -73.6667 79° East 280 322 27,000  Level Montreal Center
12:17PM 45.0167 -73.5833 90° East 280 322 27,000  Level Montreal Center
12:18PM 45.0167 -73.4500 90° East 270 311 27,000  Level Montreal Center
12:19PM 45.0167 -73.3667 90° East 280 322 27,000  Level Montreal Center
12:20PM 45.0167 -73.2500 90° East 270 311 27,000  Level Montreal Center
12:21PM 45.0167 -73.1333 90° East 280 322 27,000  Level Montreal Center
12:22PM 45.0333 -73.0000 80° East 280 322 27,000  Level Montreal Center
12:23PM 45.0333 -72.9167 90° East 280 322 27,000  Level Montreal Center
12:24PM 45.0333 -72.8000 90° East 280 322 27,000  Level Montreal Center
12:25PM 45.0333 -72.7000 90° East 280 322 27,000  Level Montreal Center
12:26PM 45.0333 -72.5833 90° East 280 322 27,000  Level Montreal Center
12:27PM 45.0333 -72.4667 90° East 280 322 27,000  Level Montreal Center
12:28PM 45.0333 -72.3667 90° East 280 322 27,000  Level Montreal Center
12:28PM 45.0467 -72.3256 65° Northeast 276 318 27,000  Level Boston Center
12:30PM 45.0506 -72.2167 87° East 271 312 27,000  Level Boston Center
12:31PM 45.0503 -72.1053 90° East 271 312 27,000  Level Boston Center
12:31PM 45.0522 -71.9964 89° East 271 312 27,000  Level Boston Center
12:32PM 45.0536 -71.8847 89° East 271 312 27,000  Level Boston Center
12:33PM 45.0572 -71.7761 87° East 271 312 27,000  Level Boston Center
12:36PM 45.0558 -71.5556 90° East 271 312 27,000  Level Boston Center
12:36PM 45.0592 -71.4439 88° East 271 312 27,000  Level Boston Center
12:37PM 45.0581 -71.3325 91° East 271 312 27,000  Level Boston Center
12:38PM 45.0611 -71.2236 88° East 271 312 27,000 240 Level Boston Center
12:40PM 45.0536 -71.1061 95° East 271 312 27,500 360 Climbing Boston Center
12:41PM 45.0567 -71.0033 88° East 266 306 27,900 180 Climbing Boston Center
12:42PM 45.0569 -70.8769 90° East 266 306 28,000  Climbing Boston Center
12:43PM 45.0561 -70.8064 91° East 266 306 28,000  Level Boston Center
12:44PM 45.0583 -70.6769 89° East 266 306 28,000  Level Boston Center
12:45PM 45.0564 -70.5625 91° East 273 314 28,000  Level Boston Center
12:46PM 45.0567 -70.4539 90° East 273 314 28,000  Level Boston Center
12:47PM 45.0569 -70.3422 90° East 273 314 28,000  Level Boston Center
12:48PM 45.0569 -70.2275 90° East 273 314 28,000  Level Boston Center
12:49PM 45.0567 -70.1189 90° East 278 320 28,000  Level Boston Center
12:50PM 45.0561 -69.9808 90° East 278 320 28,000  Level Boston Center
12:51PM 45.0558 -69.8719 90° East 278 320 28,000  Level Boston Center
12:52PM 45.0553 -69.7575 90° East 283 326 28,000  Level Boston Center
12:53PM 45.0547 -69.6458 90° East 283 326 28,000  Level Boston Center
12:54PM 45.0539 -69.5311 91° East 283 326 28,000  Level Boston Center
12:55PM 45.0528 -69.4078 91° East 288 331 28,000  Level Boston Center
12:56PM 45.0497 -69.2933 92° East 288 331 28,000  Level Boston Center
12:57PM 45.0489 -69.1817 91° East 288 331 28,000 -60 Level Boston Center
12:58PM 45.0475 -69.0672 91° East 288 331 27,900 -360 Descending Boston Center
12:59PM 45.0464 -68.9525 91° East 288 331 27,400 -480 Descending Boston Center
01:00PM 45.0447 -68.8322 91° East 293 337 27,000 -240 Descending Boston Center
01:01PM 45.0431 -68.7147 91° East 293 337 27,000  Level Boston Center
01:02PM 45.0392 -68.6003 93° East 288 331 27,000  Level Boston Center
01:03PM 45.0375 -68.4858 91° East 288 331 27,000  Level Boston Center
01:04PM 45.0356 -68.3686 91° East 288 331 27,000  Level Boston Center
01:05PM 45.0336 -68.2569 91° East 288 331 27,000  Level Boston Center
01:06PM 45.0314 -68.1425 92° East 288 331 27,000  Level Boston Center
01:07PM 45.0292 -68.0250 91° East 288 331 27,000  Level Boston Center
01:08PM 45.0269 -67.9106 92° East 288 331 27,000  Level Boston Center
01:09PM 45.0244 -67.7961 92° East 288 331 27,000  Level Boston Center
01:10PM 45.0206 -67.7025 93° East 288 331 27,000  Level Boston Center
01:11PM 45.0167 -67.5589 92° East 288 331 27,000  Level Boston Center
01:12PM 45.0139 -67.4417 92° East 288 331 27,000  Level Boston Center
01:13PM 45.0108 -67.3242 92° East 288 331 27,000  Level Boston Center
01:14PM 45.0056 -67.2072 94° East 293 337 27,000  Level Boston Center
01:15PM 45.0022 -67.0900 92° East 293 337 27,000  Level Boston Center
01:16PM 44.9986 -66.9697 92° East 293 337 27,000  Level Boston Center
01:17PM 44.9833 -66.8333 99° East 300 345 27,000  Level Moncton Center
01:18PM 44.9833 -66.7167 90° East 300 345 27,000  Level Moncton Center
01:19PM 44.9667 -66.6000 101° East 300 345 27,000  Level Moncton Center
01:20PM 44.9667 -66.4833 90° East 300 345 27,000  Level Moncton Center
01:21PM 44.9500 -66.3667 101° East 310 357 27,000  Level Moncton Center
01:22PM 44.9500 -66.2333 90° East 310 357 27,000  Level Moncton Center
01:23PM 44.9667 -66.1000 80° East 310 357 27,000  Level Moncton Center
01:24PM 44.9500 -65.9833 101° East 310 357 27,000  Level Moncton Center
01:25PM 44.9500 -65.8667 90° East 310 357 27,000  Level Moncton Center
01:26PM 44.9333 -65.7500 101° East 310 357 27,000  Level Moncton Center
01:27PM 44.9333 -65.6333 90° East 310 357 27,000  Level Moncton Center
01:28PM 44.9333 -65.5000 90° East 310 357 27,000  Level Moncton Center
01:29PM 44.9167 -65.3833 101° East 310 357 27,000 -60 Level Moncton Center
01:30PM 44.9167 -65.2500 90° East 310 357 26,900 -360 Descending Moncton Center
01:31PM 44.9000 -65.1333 101° East 320 368 26,300 -780 Descending Moncton Center
01:32PM 44.9000 -65.0167 90° East 330 380 25,400 -1,200 Descending Moncton Center
01:33PM 44.9000 -64.8667 90° East 330 380 24,000 -1,440 Descending Moncton Center
01:34PM 44.9000 -64.7500 90° East 330 380 22,600 -1,500 Descending Moncton Center
01:35PM 44.9000 -64.6167 90° East 330 380 21,000 -1,560 Descending Moncton Center
01:36PM 44.9000 -64.4833 90° East 330 380 19,500 -1,500 Descending Moncton Center
01:37PM 44.9000 -64.3667 90° East 320 368 18,000 -1,500 Descending Moncton Center
01:38PM 44.9000 -64.2333 90° East 310 357 16,500 -1,500 Descending Moncton Center
01:39PM 44.9000 -64.1167 90° East 310 357 15,000 -1,560 Descending Moncton Center
01:40PM 44.9167 -63.9667 81° East 320 368 13,400 -1,500 Descending Moncton Center
01:41PM 44.9167 -63.8500 90° East 320 368 12,000 -1,500 Descending Moncton Center
01:42PM 44.9333 -63.7333 79° East 310 357 10,500 -1,560 Descending Moncton Center
01:43PM 44.9500 -63.6167 79° East 300 345 8,900 -1,560 Descending Moncton Center
01:44PM 44.9833 -63.5167 65° Northeast 280 322 7,400 -1,740 Descending Moncton Center
01:45PM 45.0333 -63.4667 35° Northeast 270 311 5,500 -1,920 Descending Moncton Center
01:46PM 45.1000 -63.4000 35° Northeast 240 276 3,600 -1,560 Descending Moncton Center
01:47PM 45.0833 -63.3333 109° East 210 242 2,400 -600 Descending Moncton Center
01:48PM 45.0333 -63.3333 180° South 160 184 2,400  Level Moncton Center
01:49PM 45.0000 -63.3833 227° Southwest 140 161 2,400  Level Moncton Center
01:50PM 44.9667 -63.4000 199° South 150 173 2,400 -300 Level Moncton Center
01:51PM 44.9333 -63.4333 215° Southwest 130 150 1,800 -600 Descending Moncton Center
01:52PM 44.9000 -63.4500 200° South 120 138 1,200 -600 Descending Moncton Center
01:53PM 44.8833 -63.4833 235° Southwest 110 127 600 -420 Descending Moncton Center
01:54PM 44.8500 -63.5000 200° South 110 127 400 -240 Descending Moncton Center